createdAt,value
2023-01-11T00:00:45.706Z,3.13
2023-01-11T00:03:14.220Z,7.27
2023-01-11T00:05:43.559Z,14.60
2023-01-11T00:08:12.497Z,7.40
2023-01-11T00:10:40.936Z,3.13
2023-01-11T00:13:09.052Z,7.80
2023-01-11T00:15:40.402Z,2.57
2023-01-11T00:18:08.598Z,8.07
2023-01-11T00:20:39.289Z,8.50
2023-01-11T00:23:07.799Z,9.57
2023-01-11T00:25:36.495Z,10.43
2023-01-11T00:28:05.368Z,6.60
2023-01-11T00:30:35.416Z,3.93
2023-01-11T00:33:05.068Z,2.90
2023-01-11T00:35:33.271Z,5.37
2023-01-11T00:38:01.434Z,3.47
2023-01-11T00:40:29.586Z,6.90
2023-01-11T00:43:15.413Z,8.33
2023-01-11T00:46:15.990Z,3.73
2023-01-11T00:48:45.502Z,5.60
2023-01-11T00:51:13.644Z,4.93
2023-01-11T00:53:41.868Z,3.23
2023-01-11T00:56:10.087Z,6.43
2023-01-11T00:58:38.211Z,4.80
2023-01-11T01:01:08.159Z,4.17
2023-01-11T01:03:36.450Z,5.90
2023-01-11T01:06:06.322Z,1.43
2023-01-11T01:08:34.583Z,6.03
2023-01-11T01:11:02.699Z,7.70
2023-01-11T01:13:48.507Z,9.53
2023-01-11T01:16:16.720Z,2.93
2023-01-11T01:18:44.895Z,4.83
2023-01-11T01:21:14.404Z,3.07
2023-01-11T01:23:42.525Z,7.40
2023-01-11T01:26:10.675Z,6.17
2023-01-11T01:28:38.926Z,6.77
2023-01-11T01:31:07.111Z,1.73
2023-01-11T01:33:35.311Z,3.83
2023-01-11T01:36:04.102Z,6.57
2023-01-11T01:38:33.600Z,4.57
2023-01-11T01:41:02.399Z,5.03
2023-01-11T01:43:47.760Z,5.37
2023-01-11T01:46:16.397Z,4.23
2023-01-11T01:48:47.569Z,3.87
2023-01-11T01:51:22.155Z,6.20
2023-01-11T01:53:55.693Z,2.70
2023-01-11T01:56:29.247Z,4.43
2023-01-11T01:59:01.503Z,7.27
2023-01-11T02:01:49.447Z,4.70
2023-01-11T02:04:24.212Z,2.40
2023-01-11T02:06:57.457Z,2.50
2023-01-11T02:09:33.775Z,2.90
2023-01-11T02:12:03.014Z,5.73
2023-01-11T02:14:32.805Z,3.10
2023-01-11T02:17:01.117Z,3.03
2023-01-11T02:19:41.865Z,3.47
2023-01-11T02:22:40.363Z,3.20
2023-01-11T02:25:40.567Z,2.80
2023-01-11T02:28:14.607Z,2.70
2023-01-11T02:30:54.551Z,2.03
2023-01-11T02:33:29.902Z,4.87
2023-01-11T02:36:09.764Z,2.87
2023-01-11T02:38:44.342Z,3.87
2023-01-11T02:41:20.717Z,4.07
2023-01-11T02:44:15.907Z,3.73
2023-01-11T02:46:47.368Z,2.00
2023-01-11T02:49:25.811Z,6.77
2023-01-11T02:51:57.590Z,3.30
2023-01-11T02:54:26.201Z,1.90
2023-01-11T02:56:58.933Z,5.13
2023-01-11T02:59:33.089Z,8.40
2023-01-11T03:02:01.419Z,3.57
2023-01-11T03:04:31.216Z,3.30
2023-01-11T03:07:16.629Z,4.30
2023-01-11T03:09:57.171Z,4.80
2023-01-11T03:12:54.666Z,3.77
2023-01-11T03:15:44.474Z,2.73
2023-01-11T03:18:27.059Z,4.63
2023-01-11T03:21:02.638Z,1.00
2023-01-11T03:23:38.100Z,2.10
2023-01-11T03:26:18.167Z,5.10
2023-01-11T03:28:55.226Z,5.73
2023-01-11T03:31:33.256Z,6.93
2023-01-11T03:34:07.863Z,3.53
2023-01-11T03:36:40.842Z,2.13
2023-01-11T03:39:19.349Z,3.43
2023-01-11T03:41:51.033Z,4.50
2023-01-11T03:44:21.831Z,1.60
2023-01-11T03:46:54.935Z,4.20
2023-01-11T03:49:30.693Z,2.80
2023-01-11T03:52:01.509Z,2.50
2023-01-11T03:54:32.791Z,2.37
2023-01-11T03:57:06.745Z,4.37
2023-01-11T03:59:35.666Z,2.00
2023-01-11T04:02:05.550Z,4.23
2023-01-11T04:04:33.741Z,2.80
2023-01-11T04:07:01.933Z,6.63
2023-01-11T04:09:30.139Z,6.53
2023-01-11T04:11:58.275Z,6.77
2023-01-11T04:14:26.405Z,5.23
2023-01-11T04:16:54.531Z,5.83
2023-01-11T04:19:24.798Z,1.97
2023-01-11T04:21:52.989Z,3.37
2023-01-11T04:24:21.660Z,2.83
2023-01-11T04:26:49.820Z,6.20
2023-01-11T04:29:18.019Z,1.43
2023-01-11T04:31:46.251Z,4.37
2023-01-11T04:34:14.708Z,5.67
2023-01-11T04:36:44.383Z,1.40
2023-01-11T04:39:12.573Z,1.60
2023-01-11T04:41:58.895Z,4.00
2023-01-11T04:44:27.045Z,11.63
2023-01-11T04:46:55.186Z,3.27
2023-01-11T04:49:23.324Z,4.80
2023-01-11T04:51:52.786Z,5.63
2023-01-11T04:54:21.192Z,1.80
2023-01-11T04:56:49.700Z,1.80
2023-01-11T04:59:18.084Z,6.00
2023-01-11T05:01:46.252Z,2.87
2023-01-11T05:04:14.481Z,4.67
2023-01-11T05:06:42.790Z,2.30
2023-01-11T05:09:15.291Z,3.57
2023-01-11T05:11:43.699Z,4.63
2023-01-11T05:14:12.383Z,4.03
2023-01-11T05:16:40.636Z,3.17
2023-01-11T05:19:10.367Z,2.37
2023-01-11T05:21:40.322Z,2.60
2023-01-11T05:24:11.452Z,6.63
2023-01-11T05:26:43.191Z,4.17
2023-01-11T05:29:13.652Z,2.43
2023-01-11T05:31:42.808Z,6.27
2023-01-11T05:34:13.259Z,7.47
2023-01-11T05:36:42.176Z,2.90
2023-01-11T05:39:11.962Z,4.67
2023-01-11T05:41:41.770Z,1.73
2023-01-11T05:44:29.920Z,5.63
2023-01-11T05:46:58.384Z,2.73
2023-01-11T05:49:26.815Z,2.93
2023-01-11T05:51:55.046Z,4.30
2023-01-11T05:54:23.249Z,2.20
2023-01-11T05:56:53.095Z,3.53
2023-01-11T05:59:21.514Z,4.17
2023-01-11T06:01:50.095Z,4.37
2023-01-11T06:04:18.289Z,5.97
2023-01-11T06:06:46.447Z,3.70
2023-01-11T06:09:14.605Z,4.10
2023-01-11T06:11:42.770Z,4.77
2023-01-11T06:14:12.245Z,4.50
2023-01-11T06:16:40.519Z,3.23
2023-01-11T06:19:08.694Z,3.27
2023-01-11T06:21:36.883Z,5.57
2023-01-11T06:24:05.416Z,2.87
2023-01-11T06:26:33.999Z,4.00
2023-01-11T06:29:02.195Z,2.70
2023-01-11T06:31:31.995Z,3.53
2023-01-11T06:34:00.462Z,2.40
2023-01-11T06:36:29.833Z,2.50
2023-01-11T06:38:58.130Z,7.00
2023-01-11T06:41:26.323Z,1.73
2023-01-11T06:43:54.466Z,2.80
2023-01-11T06:46:23.021Z,3.90
2023-01-11T06:48:52.518Z,5.13
2023-01-11T06:51:20.686Z,4.70
2023-01-11T06:53:48.843Z,3.00
2023-01-11T06:56:18.931Z,3.97
2023-01-11T06:58:48.665Z,1.93
2023-01-11T07:01:18.854Z,3.77
2023-01-11T07:03:47.294Z,3.77
2023-01-11T07:06:16.773Z,6.47
2023-01-11T07:08:44.988Z,4.27
2023-01-11T07:11:13.418Z,7.97
2023-01-11T07:13:41.618Z,3.30
2023-01-11T07:16:09.847Z,4.23
2023-01-11T07:18:38.036Z,4.97
2023-01-11T07:21:06.608Z,4.10
2023-01-11T07:23:36.160Z,2.50
2023-01-11T07:26:04.338Z,2.07
2023-01-11T07:28:32.490Z,7.47
2023-01-11T07:31:00.759Z,4.20
2023-01-11T07:33:29.290Z,3.03
2023-01-11T07:35:58.285Z,2.30
2023-01-11T07:38:26.510Z,3.70
2023-01-11T07:40:56.255Z,3.23
2023-01-11T07:43:23.794Z,4.03
2023-01-11T07:45:53.675Z,3.90
2023-01-11T07:48:26.601Z,5.10
2023-01-11T07:50:55.708Z,3.67
2023-01-11T07:53:26.379Z,2.50
2023-01-11T07:55:56.987Z,3.00
2023-01-11T07:58:25.549Z,4.23
2023-01-11T08:00:54.117Z,3.07
2023-01-11T08:03:22.484Z,7.07
2023-01-11T08:05:52.370Z,3.73
2023-01-11T08:08:20.780Z,3.60
2023-01-11T08:11:10.763Z,10.67
2023-01-11T08:13:58.044Z,3.63
2023-01-11T08:16:27.446Z,6.37
2023-01-11T08:18:55.695Z,4.83
2023-01-11T08:21:23.826Z,1.37
2023-01-11T08:23:54.244Z,5.80
2023-01-11T08:26:23.369Z,7.87
2023-01-11T08:28:53.817Z,3.27
2023-01-11T08:31:22.376Z,2.23
2023-01-11T08:33:50.610Z,4.90
2023-01-11T08:36:18.829Z,4.97
2023-01-11T08:38:46.965Z,1.70
2023-01-11T08:41:15.094Z,2.10
2023-01-11T08:43:43.577Z,4.83
2023-01-11T08:46:13.066Z,6.20
2023-01-11T08:48:41.240Z,5.90
2023-01-11T08:51:09.433Z,1.63
2023-01-11T08:53:37.763Z,5.00
2023-01-11T08:56:06.556Z,4.10
2023-01-11T08:58:35.010Z,6.77
2023-01-11T09:01:04.420Z,2.30
2023-01-11T09:03:34.267Z,3.83
2023-01-11T09:06:02.501Z,4.70
2023-01-11T09:08:30.705Z,2.13
2023-01-11T09:11:00.092Z,4.53
2023-01-11T09:13:28.366Z,2.40
2023-01-11T09:15:57.549Z,3.63
2023-01-11T09:18:27.173Z,1.70
2023-01-11T09:20:56.757Z,1.43
2023-01-11T09:23:24.921Z,3.87
2023-01-11T09:25:53.219Z,4.73
2023-01-11T09:28:21.560Z,1.40
2023-01-11T09:30:50.030Z,3.47
2023-01-11T09:33:18.171Z,5.93
2023-01-11T09:35:47.056Z,1.93
2023-01-11T09:38:16.557Z,3.10
2023-01-11T09:40:52.354Z,2.67
2023-01-11T09:43:26.199Z,2.50
2023-01-11T09:45:58.713Z,5.33
2023-01-11T09:48:37.139Z,4.20
2023-01-11T09:51:06.183Z,2.77
2023-01-11T09:53:38.489Z,6.40
2023-01-11T09:56:12.923Z,3.07
2023-01-11T09:58:53.889Z,3.13
2023-01-11T10:01:31.486Z,2.37
2023-01-11T10:04:33.208Z,1.50
2023-01-11T10:07:25.360Z,2.97
2023-01-11T10:18:28.162Z,1.73
2023-01-11T10:21:59.051Z,1.60
2023-01-11T10:24:33.670Z,2.60
2023-01-11T10:27:05.890Z,2.03
2023-01-11T10:29:53.686Z,3.87
2023-01-11T10:32:45.711Z,2.50
2023-01-11T10:35:45.496Z,4.93
2023-01-11T10:38:42.649Z,2.03
2023-01-11T10:41:22.138Z,2.50
2023-01-11T10:44:05.007Z,1.60
2023-01-11T10:46:39.658Z,1.70
2023-01-11T10:49:30.275Z,3.53
2023-01-11T10:52:05.686Z,2.20
2023-01-11T10:54:37.378Z,1.80
2023-01-11T10:57:18.029Z,1.47
2023-01-11T10:59:59.774Z,1.10
2023-01-11T11:02:48.529Z,5.17
2023-01-11T11:05:30.144Z,1.60
2023-01-11T11:08:03.169Z,1.77
2023-01-11T11:10:39.025Z,1.40
2023-01-11T11:13:14.483Z,2.70
2023-01-11T11:15:53.927Z,4.37
2023-01-11T11:18:22.258Z,1.20
2023-01-11T11:20:50.471Z,4.03
2023-01-11T11:23:24.647Z,1.77
2023-01-11T11:25:58.292Z,1.83
2023-01-11T11:28:30.026Z,1.50
2023-01-11T11:31:02.828Z,4.60
2023-01-11T11:33:35.926Z,2.97
2023-01-11T11:36:07.410Z,1.93
2023-01-11T11:38:37.851Z,1.17
2023-01-11T11:41:08.679Z,2.20
2023-01-11T11:43:38.620Z,2.30
2023-01-11T11:46:25.160Z,3.20
2023-01-11T11:49:12.114Z,1.60
2023-01-11T11:51:41.907Z,2.13
2023-01-11T11:54:21.727Z,1.13
2023-01-11T11:56:50.631Z,2.53
2023-01-11T11:59:21.471Z,3.03
2023-01-11T12:01:57.887Z,2.93
2023-01-11T12:04:39.157Z,1.50
2023-01-11T12:07:09.958Z,1.00
2023-01-11T12:09:44.116Z,2.20
2023-01-11T12:12:18.173Z,0.97
2023-01-11T12:15:07.934Z,1.33
2023-01-11T12:17:37.957Z,1.27
2023-01-11T12:20:28.187Z,1.50
2023-01-11T12:23:13.275Z,1.30
2023-01-11T12:25:54.505Z,1.70
2023-01-11T12:28:34.865Z,1.17
2023-01-11T12:31:09.501Z,1.50
2023-01-11T12:33:47.582Z,1.80
2023-01-11T12:36:25.560Z,4.50
2023-01-11T12:39:07.369Z,2.27
2023-01-11T12:41:57.335Z,2.57
2023-01-11T12:44:36.850Z,4.83
2023-01-11T12:47:25.247Z,4.43
2023-01-11T12:50:01.693Z,3.37
2023-01-11T12:52:46.869Z,2.57
2023-01-11T12:55:28.052Z,2.80
2023-01-11T12:58:05.590Z,1.70
2023-01-11T13:01:00.222Z,2.37
2023-01-11T13:03:55.086Z,2.37
2023-01-11T13:06:31.635Z,2.57
2023-01-11T13:09:04.675Z,2.10
2023-01-11T13:11:45.842Z,2.77
2023-01-11T13:14:35.206Z,2.87
2023-01-11T13:17:18.474Z,3.87
2023-01-11T13:19:56.127Z,2.37
2023-01-11T13:22:30.227Z,2.73
2023-01-11T13:25:02.390Z,3.13
2023-01-11T13:27:37.171Z,2.07
2023-01-11T13:30:06.563Z,4.20
2023-01-11T13:32:37.739Z,2.40
2023-01-11T13:35:16.557Z,2.00
2023-01-11T13:37:51.705Z,2.40
2023-01-11T13:40:23.343Z,2.27
2023-01-11T13:42:54.422Z,2.70
2023-01-11T13:45:25.854Z,2.27
2023-01-11T13:47:57.249Z,2.20
2023-01-11T13:50:31.938Z,2.53
2023-01-11T13:53:10.047Z,3.43
2023-01-11T13:55:46.752Z,2.30
2023-01-11T13:58:23.319Z,2.50
2023-01-11T14:00:58.423Z,2.37
2023-01-11T14:03:34.071Z,2.43
2023-01-11T14:06:19.191Z,2.37
2023-01-11T14:09:11.052Z,2.73
2023-01-11T14:11:52.939Z,1.73
2023-01-11T14:14:39.451Z,3.30
2023-01-11T14:17:36.547Z,2.27
2023-01-11T14:20:13.255Z,1.47
2023-01-11T14:22:49.140Z,1.87
2023-01-11T14:25:24.222Z,3.90
2023-01-11T14:28:18.092Z,1.83
2023-01-11T14:31:02.635Z,1.53
2023-01-11T14:34:07.000Z,1.63
2023-01-11T14:37:05.935Z,1.80
2023-01-11T14:39:52.740Z,1.57
2023-01-11T14:42:54.476Z,1.10
2023-01-11T14:45:34.710Z,1.83
2023-01-11T14:48:19.169Z,2.07
2023-01-11T14:51:08.156Z,1.47
2023-01-11T14:53:41.673Z,1.93
2023-01-11T14:56:38.159Z,2.00
2023-01-11T14:59:08.146Z,1.67
2023-01-11T15:02:18.277Z,1.90
2023-01-11T15:05:08.147Z,2.10
2023-01-11T15:07:44.825Z,1.87
2023-01-11T15:10:50.659Z,2.10
2023-01-11T15:13:22.579Z,2.07
2023-01-11T15:16:09.920Z,2.63
2023-01-11T15:18:47.275Z,2.10
2023-01-11T15:21:19.225Z,2.00
2023-01-11T15:23:51.139Z,1.80
2023-01-11T15:26:21.377Z,2.40
2023-01-11T15:28:52.297Z,4.73
2023-01-11T15:31:36.500Z,3.50
2023-01-11T15:34:19.799Z,3.43
2023-01-11T15:36:58.413Z,3.63
2023-01-11T15:39:36.716Z,3.43
2023-01-11T15:42:27.686Z,4.33
2023-01-11T15:45:14.184Z,2.90
2023-01-11T15:47:56.099Z,2.50
2023-01-11T15:50:51.530Z,2.90
2023-01-11T15:53:57.347Z,6.10
2023-01-11T15:56:47.551Z,2.20
2023-01-11T15:59:51.545Z,3.10
2023-01-11T16:02:49.130Z,3.03
2023-01-11T16:05:22.389Z,3.40
2023-01-11T16:08:04.479Z,3.43
2023-01-11T16:10:52.768Z,2.60
2023-01-11T16:13:34.758Z,2.40
2023-01-11T16:16:11.583Z,2.20
2023-01-11T16:18:44.816Z,2.23
2023-01-11T16:21:19.012Z,2.20
2023-01-11T16:23:49.716Z,1.90
2023-01-11T16:26:20.923Z,2.10
2023-01-11T16:28:51.751Z,1.80
2023-01-11T16:31:20.753Z,2.00
2023-01-11T16:33:50.147Z,1.93
2023-01-11T16:36:21.092Z,2.10
2023-01-11T16:38:57.802Z,3.00
2023-01-11T16:41:29.936Z,1.50
2023-01-11T16:44:02.445Z,1.90
2023-01-11T16:47:07.661Z,3.03
2023-01-11T16:49:35.944Z,2.43
2023-01-11T16:52:38.732Z,2.23
2023-01-11T16:55:18.750Z,2.50
2023-01-11T16:57:52.454Z,2.20
2023-01-11T17:00:28.894Z,2.20
2023-01-11T17:03:16.081Z,2.60
2023-01-11T17:05:54.513Z,3.57
2023-01-11T17:08:31.214Z,2.67
2023-01-11T17:11:05.355Z,2.60
2023-01-11T17:14:16.324Z,3.33
2023-01-11T17:16:48.794Z,4.13
2023-01-11T17:19:19.737Z,3.30
2023-01-11T17:21:49.554Z,4.13
2023-01-11T17:24:23.228Z,6.97
2023-01-11T17:26:56.106Z,4.67
2023-01-11T17:29:29.131Z,6.43
2023-01-11T17:32:00.196Z,3.53
2023-01-11T17:34:31.839Z,6.00
2023-01-11T17:37:01.383Z,4.17
2023-01-11T17:39:32.794Z,7.33
2023-01-11T17:42:22.291Z,6.03
2023-01-11T17:45:09.364Z,4.17
2023-01-11T17:47:39.812Z,5.20
2023-01-11T17:50:23.094Z,4.73
2023-01-11T17:52:55.490Z,4.20
2023-01-11T17:55:25.502Z,4.10
2023-01-11T17:58:19.218Z,6.27
2023-01-11T18:01:10.811Z,6.43
2023-01-11T18:03:44.016Z,6.00
2023-01-11T18:06:14.847Z,5.23
2023-01-11T18:08:48.375Z,6.03
2023-01-11T18:11:25.339Z,4.87
2023-01-11T18:13:57.254Z,6.43
2023-01-11T18:16:26.300Z,6.20
2023-01-11T18:18:55.629Z,6.50
2023-01-11T18:21:43.374Z,7.00
2023-01-11T18:24:24.913Z,7.10
2023-01-11T18:27:07.250Z,7.50
2023-01-11T18:29:51.213Z,6.90
2023-01-11T18:32:20.357Z,5.87
2023-01-11T18:34:51.721Z,6.83
2023-01-11T18:37:20.882Z,6.80
2023-01-11T18:39:51.531Z,6.43
2023-01-11T18:42:23.654Z,6.50
2023-01-11T18:44:53.143Z,6.17
2023-01-11T18:47:23.561Z,6.57
2023-01-11T18:49:53.888Z,7.50
2023-01-11T18:52:26.280Z,7.20
2023-01-11T18:54:55.347Z,7.70
2023-01-11T18:57:24.269Z,8.50
2023-01-11T18:59:54.125Z,8.13
2023-01-11T19:02:25.858Z,9.07
2023-01-11T19:04:55.187Z,8.03
2023-01-11T19:07:24.776Z,9.83
2023-01-11T19:09:54.914Z,8.30
2023-01-11T19:12:24.122Z,7.67
2023-01-11T19:14:53.820Z,8.90
2023-01-11T19:17:22.039Z,13.80
2023-01-11T19:19:50.284Z,8.97
2023-01-11T19:22:18.445Z,9.87
2023-01-11T19:24:46.697Z,9.57
2023-01-11T19:27:15.534Z,9.73
2023-01-11T19:29:43.850Z,9.10
2023-01-11T19:32:14.147Z,8.83
2023-01-11T19:34:42.785Z,11.90
2023-01-11T19:37:11.313Z,11.13
2023-01-11T19:39:40.178Z,10.47
2023-01-11T19:42:08.341Z,9.97
2023-01-11T19:44:38.801Z,9.80
2023-01-11T19:47:11.581Z,8.50
2023-01-11T19:49:42.776Z,13.87
2023-01-11T19:52:14.042Z,8.47
2023-01-11T19:54:43.839Z,9.33
2023-01-11T19:57:14.029Z,8.80
2023-01-11T19:59:42.582Z,10.37
2023-01-11T20:02:12.263Z,12.00
2023-01-11T20:04:42.638Z,9.73
2023-01-11T20:07:12.630Z,11.13
2023-01-11T20:09:40.860Z,11.23
2023-01-11T20:12:11.251Z,8.77
2023-01-11T20:14:40.910Z,10.97
2023-01-11T20:17:09.597Z,9.00
2023-01-11T20:19:37.780Z,12.20
2023-01-11T20:22:07.300Z,11.23
2023-01-11T20:24:35.465Z,15.97
2023-01-11T20:27:03.770Z,11.70
2023-01-11T20:29:32.052Z,11.13
2023-01-11T20:32:18.723Z,8.63
2023-01-11T20:34:48.349Z,12.17
2023-01-11T20:37:17.851Z,12.50
2023-01-11T20:39:46.001Z,12.27
2023-01-11T20:42:14.134Z,12.60
2023-01-11T20:44:42.402Z,13.37
2023-01-11T20:47:10.924Z,14.63
2023-01-11T20:49:39.302Z,17.30
2023-01-11T20:52:07.938Z,10.23
2023-01-11T20:54:37.560Z,11.87
2023-01-11T20:57:12.160Z,8.97
2023-01-11T20:59:41.305Z,9.70
2023-01-11T21:02:11.217Z,10.20
2023-01-11T21:04:39.695Z,17.77
2023-01-11T21:07:07.949Z,9.90
2023-01-11T21:09:37.874Z,11.70
2023-01-11T21:12:08.215Z,8.50
2023-01-11T21:14:37.635Z,13.27
2023-01-11T21:17:05.945Z,15.50
2023-01-11T21:19:34.190Z,11.03
2023-01-11T21:22:02.425Z,13.40
2023-01-11T21:24:30.892Z,16.40
2023-01-11T21:27:00.488Z,11.23
2023-01-11T21:29:28.651Z,11.70
2023-01-11T21:31:56.808Z,14.60
2023-01-11T21:34:24.965Z,9.20
2023-01-11T21:36:53.137Z,10.60
2023-01-11T21:39:21.311Z,10.73
2023-01-11T21:41:59.788Z,13.63
2023-01-11T21:44:33.192Z,12.47
2023-01-11T21:47:02.172Z,11.43
2023-01-11T21:49:30.488Z,13.93
2023-01-11T21:51:58.670Z,11.50
2023-01-11T21:54:26.905Z,9.53
2023-01-11T21:56:55.129Z,9.60
2023-01-11T21:59:23.346Z,12.10
2023-01-11T22:01:52.906Z,7.80
2023-01-11T22:04:21.617Z,7.03
2023-01-11T22:06:54.511Z,8.00
2023-01-11T22:09:24.437Z,7.63
2023-01-11T22:11:52.937Z,13.67
2023-01-11T22:14:21.213Z,15.03
2023-01-11T22:16:49.427Z,12.80
2023-01-11T22:19:19.489Z,11.00
2023-01-11T22:21:47.718Z,13.67
2023-01-11T22:24:17.034Z,10.93
2023-01-11T22:26:45.349Z,9.90
2023-01-11T22:29:15.137Z,7.60
2023-01-11T22:31:46.796Z,11.30
2023-01-11T22:34:15.991Z,6.60
2023-01-11T22:36:46.182Z,11.00
2023-01-11T22:39:16.131Z,10.97
2023-01-11T22:41:45.868Z,8.03
2023-01-11T22:44:15.041Z,7.23
2023-01-11T22:46:43.672Z,11.83
2023-01-11T22:49:12.686Z,8.33
2023-01-11T22:51:41.552Z,6.10
2023-01-11T22:54:11.813Z,9.37
2023-01-11T22:56:40.424Z,14.20
2023-01-11T22:59:08.887Z,8.10
2023-01-11T23:01:38.471Z,10.40
2023-01-11T23:04:08.211Z,10.77
2023-01-11T23:06:38.527Z,13.00
2023-01-11T23:09:09.269Z,6.83
2023-01-11T23:11:58.512Z,6.47
2023-01-11T23:14:30.093Z,10.57
2023-01-11T23:17:00.058Z,12.97
2023-01-11T23:19:28.563Z,7.30
2023-01-11T23:21:56.759Z,10.90
2023-01-11T23:24:25.020Z,9.67
2023-01-11T23:26:54.516Z,7.10
2023-01-11T23:29:22.725Z,9.40
2023-01-11T23:31:51.014Z,6.60
2023-01-11T23:34:19.665Z,19.33
2023-01-11T23:36:47.837Z,9.03
2023-01-11T23:39:18.657Z,9.00
2023-01-11T23:42:04.468Z,9.97
2023-01-11T23:44:35.744Z,14.73
2023-01-11T23:47:22.273Z,9.13
2023-01-11T23:49:51.802Z,10.57
2023-01-11T23:52:20.979Z,7.77
2023-01-11T23:54:49.695Z,11.67
2023-01-11T23:57:19.006Z,8.60
2023-01-11T23:59:48.512Z,13.67
